FYWH/WDH METAR and TAF weather

Enter ICAO airport designator
Station Type Date Time Source
FYWH METAR 2019/02/22 18:00 UTC NOAA

FYWH 221800Z 09004KT 9999 VC RA FEW050CB 27/02 Q1023 NOSIG


Station Type Date Time Source
FYWH Decoded METAR 2019/02/22 18:00 UTC NOAA

J. G. Strijdom, Namibia (FYWH) 22-29S 017-28E 1700M
Feb 22, 2019 - 01:00 PM EST / 2019.02.22 1800 UTC
Wind: from the E (090 degrees) at 5 MPH (4 KT):0
Visibility: greater than 7 mile(s):0
Sky conditions: mostly clear
Weather: rain; Cumulonimbus clouds observed
Temperature: 80 F (27 C)
Dew Point: 35 F (2 C)
Relative Humidity: 19%
Pressure (altimeter): 30.21 in. Hg (1023 hPa)
ob: FYWH 221800Z 09004KT 9999 VC RA FEW050CB 27/02 Q1023 NOSIG
cycle: 18

Station Type Date Time Source
FYWH TAF 2019/02/22 18:33 UTC NOAA

TAF FYWH 221600Z 2218/2318 09007KT 9999 SCT050
BECMG 2220/2222 26007KT CAVOK
BECMG 2309/2311 04008KT 9999 SCT050


Example: see airport list